Eships Agamid — ZDHS9 — position and weather

sailwx.info

Track history (hours):
 
Tides and Currents Weather Stations Pressure Air Temp Water Temp Dewpoint Dewpoint Depression Visibility Wind Speed Wind Dir Waves Ship Positions

Eships Agamid

Last reported at 2015-May-03 21:33 UTC. Time now 2015-May-03 21:57 UTC.
Position N 49°28' E 000°07'.

Length 128 m; draft 5.8 m.

Type: Tanker. MMSI: 236355000.

Date/timePositionNaut miles runAvg speedWind from/ knotsBaromVisibWave heightAir tempDewpointWater temp
2015-May-03 21:33N 49°28' E 000°07'0 0.0
2015-May-03 20:33N 49°28' E 000°07'2 2.3
2015-May-03 19:33N 49°29' E 000°04'10 9.7
2015-May-03 18:33N 49°32' W 000°10'7 6.8
2015-May-03 17:33N 49°35' W 000°20'1211.8
2015-May-03 16:33N 49°40' W 000°36'205 9.7
2015-May-02 19:32N 47°54' W 005°02'1211.9
2015-May-02 18:33N 47°48' W 004°47'4511.3
2015-May-02 14:33N 47°38' W 003°41'1212.2
2015-May-02 13:33N 47°41' W 003°24'3 3.0
2015-May-02 12:31N 47°44' W 003°21'0 0.0
2015-May-02 11:31N 47°44' W 003°21'0 0.0
2015-May-02 10:31N 47°44' W 003°21'0 0.0
2015-May-02 09:31N 47°44' W 003°21'0 0.0
2015-May-02 08:31N 47°44' W 003°21'0 0.0
2015-May-02 07:31N 47°44' W 003°21'0 0.0
2015-May-02 06:31N 47°44' W 003°21'0 0.0
2015-May-02 05:31N 47°44' W 003°21'0 0.0
2015-May-02 04:31N 47°44' W 003°21'0 0.0
2015-May-02 03:31N 47°44' W 003°21'0 0.0
2015-May-02 02:31N 47°44' W 003°21'0 0.0
2015-May-02 01:31N 47°44' W 003°21'0 0.0
2015-May-02 00:31N 47°44' W 003°21'0 0.0
2015-May-01 23:31N 47°44' W 003°21'0 0.0
2015-May-01 22:31N 47°44' W 003°21'0 0.0
2015-May-01 21:31N 47°44' W 003°21'0 0.0
2015-May-01 20:31N 47°44' W 003°21'0 0.0
2015-May-01 19:31N 47°44' W 003°21'0 0.0
2015-May-01 18:31N 47°44' W 003°21'0 0.0
2015-May-01 17:31N 47°44' W 003°21'0 0.0
2015-May-01 16:31N 47°44' W 003°21'0 0.0
2015-May-01 15:28N 47°44' W 003°21'0 0.0
2015-May-01 14:31N 47°44' W 003°21'0 0.0
2015-May-01 13:31N 47°44' W 003°21'1 1.0
2015-May-01 12:33N 47°43' W 003°22'8 8.2
2015-May-01 11:33N 47°40' W 003°33'10 9.6
2015-May-01 10:33N 47°32' W 003°41'  
2015-Apr-27 16:34N 48°13' W 004°59'1414.1
2015-Apr-27 15:33N 48°19' W 004°40'10 9.4
2015-Apr-27 14:32N 48°23' W 004°27'0 0.0
2015-Apr-27 13:32N 48°23' W 004°27'0 0.0
2015-Apr-27 12:32N 48°23' W 004°27'0 0.0
2015-Apr-27 11:32N 48°23' W 004°27'0 0.0
2015-Apr-27 10:32N 48°23' W 004°27'0 0.0
2015-Apr-27 09:32N 48°23' W 004°27'0 0.0
2015-Apr-27 08:32N 48°23' W 004°27'0 0.0
2015-Apr-27 07:32N 48°23' W 004°27'0 0.0
2015-Apr-27 06:32N 48°23' W 004°27'0 0.0
2015-Apr-27 05:32N 48°23' W 004°27'0 0.0
2015-Apr-27 04:32N 48°23' W 004°27'0 0.0
2015-Apr-27 03:32N 48°23' W 004°27'0 0.0
2015-Apr-27 02:32N 48°23' W 004°27'0 0.0
2015-Apr-27 01:32N 48°23' W 004°27'0 0.0
2015-Apr-27 00:32N 48°23' W 004°27'0 0.0
2015-Apr-26 23:32N 48°23' W 004°27'0 0.0
2015-Apr-26 22:32N 48°23' W 004°27'0 0.0
2015-Apr-26 21:32N 48°23' W 004°27'0 0.0
2015-Apr-26 20:32N 48°23' W 004°27'0 0.0
2015-Apr-26 19:32N 48°23' W 004°27'0 0.0
2015-Apr-26 18:32N 48°23' W 004°27'0 0.0
2015-Apr-26 17:32N 48°23' W 004°27'0 0.0
2015-Apr-26 16:32N 48°23' W 004°27'0 0.0
2015-Apr-26 15:32N 48°23' W 004°27'0 0.0
2015-Apr-26 14:32N 48°23' W 004°27'1 1.5
2015-Apr-26 13:33N 48°22' W 004°28'2 1.5
2015-Apr-26 12:31N 48°20' W 004°29'0 0.1
2015-Apr-26 11:31N 48°20' W 004°29'0 0.0
2015-Apr-26 10:31N 48°20' W 004°29'0 0.0
2015-Apr-26 09:31N 48°20' W 004°29'0 0.0
2015-Apr-26 08:31N 48°20' W 004°28'0 0.0
2015-Apr-26 07:31N 48°20' W 004°28'0 0.0
2015-Apr-26 06:31N 48°20' W 004°28'0 0.1
2015-Apr-26 05:31N 48°20' W 004°28'0 0.0
2015-Apr-26 04:31N 48°20' W 004°28'0 0.0
2015-Apr-26 03:31N 48°20' W 004°29'0 0.0
2015-Apr-26 02:31N 48°20' W 004°29'0 0.0
2015-Apr-26 01:31N 48°20' W 004°29'0 0.0
2015-Apr-26 00:31N 48°20' W 004°29'0 0.0
2015-Apr-25 23:31N 48°20' W 004°29'0 0.0
2015-Apr-25 22:31N 48°20' W 004°29'0 0.1
2015-Apr-25 21:31N 48°20' W 004°28'0 0.0
2015-Apr-25 20:31N 48°20' W 004°28'0 0.0
2015-Apr-25 19:31N 48°20' W 004°28'2 1.7
2015-Apr-25 18:33N 48°21' W 004°31'1211.7
2015-Apr-25 17:33N 48°16' W 004°47'1413.9
2015-Apr-25 16:33N 48°09' W 005°05'13 9.6
2015-Apr-25 15:09N 47°55' W 005°04'1113.1
2015-Apr-25 14:19N 47°50' W 004°51'10812.0
2015-Apr-25 05:18N 47°05' W 002°25'810.7
2015-Apr-25 04:33N 47°12' W 002°18'1010.2
2015-Apr-25 03:33N 47°18' W 002°06'1 0.5
2015-Apr-25 02:07N 47°18' W 002°05'0 0.0
2015-Apr-24 23:25N 47°18' W 002°05'0 0.0
2015-Apr-24 06:07N 47°18' W 002°05'17 3.5
2015-Apr-24 01:20N 47°07' W 002°24'  
Track history (hours):
 
Tides and Currents Weather Stations Pressure Air Temp Water Temp Dewpoint Dewpoint Depression Visibility Wind Speed Wind Dir Waves Ship Positions

Eships Agamid

Last reported at 2015-May-03 21:33 UTC. Time now 2015-May-03 21:57 UTC.
Position N 49°28' E 000°07'.

Length 128 m; draft 5.8 m.

Type: Tanker. MMSI: 236355000.

Date/timePositionNaut miles runAvg speedWind from/ knotsBaromVisibWave heightAir tempDewpointWater temp
2015-May-03 21:33N 49°28' E 000°07'0 0.0
2015-May-03 20:33N 49°28' E 000°07'2 2.3
2015-May-03 19:33N 49°29' E 000°04'10 9.7
2015-May-03 18:33N 49°32' W 000°10'7 6.8
2015-May-03 17:33N 49°35' W 000°20'1211.8
2015-May-03 16:33N 49°40' W 000°36'205 9.7
2015-May-02 19:32N 47°54' W 005°02'1211.9
2015-May-02 18:33N 47°48' W 004°47'4511.3
2015-May-02 14:33N 47°38' W 003°41'1212.2
2015-May-02 13:33N 47°41' W 003°24'3 3.0
2015-May-02 12:31N 47°44' W 003°21'0 0.0
2015-May-02 11:31N 47°44' W 003°21'0 0.0
2015-May-02 10:31N 47°44' W 003°21'0 0.0
2015-May-02 09:31N 47°44' W 003°21'0 0.0
2015-May-02 08:31N 47°44' W 003°21'0 0.0
2015-May-02 07:31N 47°44' W 003°21'0 0.0
2015-May-02 06:31N 47°44' W 003°21'0 0.0
2015-May-02 05:31N 47°44' W 003°21'0 0.0
2015-May-02 04:31N 47°44' W 003°21'0 0.0
2015-May-02 03:31N 47°44' W 003°21'0 0.0
2015-May-02 02:31N 47°44' W 003°21'0 0.0
2015-May-02 01:31N 47°44' W 003°21'0 0.0
2015-May-02 00:31N 47°44' W 003°21'0 0.0
2015-May-01 23:31N 47°44' W 003°21'0 0.0
2015-May-01 22:31N 47°44' W 003°21'0 0.0
2015-May-01 21:31N 47°44' W 003°21'0 0.0
2015-May-01 20:31N 47°44' W 003°21'0 0.0
2015-May-01 19:31N 47°44' W 003°21'0 0.0
2015-May-01 18:31N 47°44' W 003°21'0 0.0
2015-May-01 17:31N 47°44' W 003°21'0 0.0
2015-May-01 16:31N 47°44' W 003°21'0 0.0
2015-May-01 15:28N 47°44' W 003°21'0 0.0
2015-May-01 14:31N 47°44' W 003°21'0 0.0
2015-May-01 13:31N 47°44' W 003°21'1 1.0
2015-May-01 12:33N 47°43' W 003°22'8 8.2
2015-May-01 11:33N 47°40' W 003°33'10 9.6
2015-May-01 10:33N 47°32' W 003°41'  
2015-Apr-27 16:34N 48°13' W 004°59'1414.1
2015-Apr-27 15:33N 48°19' W 004°40'10 9.4
2015-Apr-27 14:32N 48°23' W 004°27'0 0.0
2015-Apr-27 13:32N 48°23' W 004°27'0 0.0
2015-Apr-27 12:32N 48°23' W 004°27'0 0.0
2015-Apr-27 11:32N 48°23' W 004°27'0 0.0
2015-Apr-27 10:32N 48°23' W 004°27'0 0.0
2015-Apr-27 09:32N 48°23' W 004°27'0 0.0
2015-Apr-27 08:32N 48°23' W 004°27'0 0.0
2015-Apr-27 07:32N 48°23' W 004°27'0 0.0
2015-Apr-27 06:32N 48°23' W 004°27'0 0.0
2015-Apr-27 05:32N 48°23' W 004°27'0 0.0
2015-Apr-27 04:32N 48°23' W 004°27'0 0.0
2015-Apr-27 03:32N 48°23' W 004°27'0 0.0
2015-Apr-27 02:32N 48°23' W 004°27'0 0.0
2015-Apr-27 01:32N 48°23' W 004°27'0 0.0
2015-Apr-27 00:32N 48°23' W 004°27'0 0.0
2015-Apr-26 23:32N 48°23' W 004°27'0 0.0
2015-Apr-26 22:32N 48°23' W 004°27'0 0.0
2015-Apr-26 21:32N 48°23' W 004°27'0 0.0
2015-Apr-26 20:32N 48°23' W 004°27'0 0.0
2015-Apr-26 19:32N 48°23' W 004°27'0 0.0
2015-Apr-26 18:32N 48°23' W 004°27'0 0.0
2015-Apr-26 17:32N 48°23' W 004°27'0 0.0
2015-Apr-26 16:32N 48°23' W 004°27'0 0.0
2015-Apr-26 15:32N 48°23' W 004°27'0 0.0
2015-Apr-26 14:32N 48°23' W 004°27'1 1.5
2015-Apr-26 13:33N 48°22' W 004°28'2 1.5
2015-Apr-26 12:31N 48°20' W 004°29'0 0.1
2015-Apr-26 11:31N 48°20' W 004°29'0 0.0
2015-Apr-26 10:31N 48°20' W 004°29'0 0.0
2015-Apr-26 09:31N 48°20' W 004°29'0 0.0
2015-Apr-26 08:31N 48°20' W 004°28'0 0.0
2015-Apr-26 07:31N 48°20' W 004°28'0 0.0
2015-Apr-26 06:31N 48°20' W 004°28'0 0.1
2015-Apr-26 05:31N 48°20' W 004°28'0 0.0
2015-Apr-26 04:31N 48°20' W 004°28'0 0.0
2015-Apr-26 03:31N 48°20' W 004°29'0 0.0
2015-Apr-26 02:31N 48°20' W 004°29'0 0.0
2015-Apr-26 01:31N 48°20' W 004°29'0 0.0
2015-Apr-26 00:31N 48°20' W 004°29'0 0.0
2015-Apr-25 23:31N 48°20' W 004°29'0 0.0
2015-Apr-25 22:31N 48°20' W 004°29'0 0.1
2015-Apr-25 21:31N 48°20' W 004°28'0 0.0
2015-Apr-25 20:31N 48°20' W 004°28'0 0.0
2015-Apr-25 19:31N 48°20' W 004°28'2 1.7
2015-Apr-25 18:33N 48°21' W 004°31'1211.7
2015-Apr-25 17:33N 48°16' W 004°47'1413.9
2015-Apr-25 16:33N 48°09' W 005°05'13 9.6
2015-Apr-25 15:09N 47°55' W 005°04'1113.1
2015-Apr-25 14:19N 47°50' W 004°51'10812.0
2015-Apr-25 05:18N 47°05' W 002°25'810.7
2015-Apr-25 04:33N 47°12' W 002°18'1010.2
2015-Apr-25 03:33N 47°18' W 002°06'1 0.5
2015-Apr-25 02:07N 47°18' W 002°05'0 0.0
2015-Apr-24 23:25N 47°18' W 002°05'0 0.0
2015-Apr-24 06:07N 47°18' W 002°05'17 3.5
2015-Apr-24 01:20N 47°07' W 002°24'  

Dump ship's entire track history